Terminal Aerodrome Forecast
Issued by NWS

Home | Current Version | Previous Version | Text Only | Print | Product List | Glossary On
Versions: 1 2 3 4 5 6 7 8 9 10 11 12 13 14 15 16 17 18 19 20 21 22 23 24 25 26
033
FTUS41 KOKX 240535
TAFTEB
TAF
KTEB 240535Z 2406/2506 15011G21KT P6SM OVC020
     FM240800 16013G25KT 5SM -SHRA SCT005 OVC012 WS020/17050KT
     FM241000 16014G26KT 3SM SHRA SCT005 OVC012 WS020/17050KT
     FM241300 16017G25KT 2SM +SHRA VCTS SCT005CB OVC012
      WS020/17050KT
     FM250000 18013G19KT 2SM +SHRA VCTS SCT005CB OVC012
      WS020/17050KT
     FM250200 20009KT 2SM +SHRA VCTS SCT005CB OVC012 WS020/17050KT
     FM250500 22007KT 2SM +SHRA VCTS SCT005CB OVC012=

USA.gov is the U.S. government's official web portal to all federal, state and local government web resources and services.